sensor_id;sensor_type;location;lat;lon;timestamp;P1;durP1;ratioP1;P2;durP2;ratioP2
84923;SDS011;75286;52.218;5.180;2024-02-26T00:01:01;8.48;;;4.50;;
84923;SDS011;75286;52.218;5.180;2024-02-26T00:03:29;6.18;;;3.50;;
84923;SDS011;75286;52.218;5.180;2024-02-26T00:05:57;6.50;;;3.85;;
84923;SDS011;75286;52.218;5.180;2024-02-26T00:08:23;8.38;;;3.90;;
84923;SDS011;75286;52.218;5.180;2024-02-26T00:10:48;6.15;;;3.30;;
84923;SDS011;75286;52.218;5.180;2024-02-26T00:13:13;7.03;;;3.90;;
84923;SDS011;75286;52.218;5.180;2024-02-26T00:15:39;6.57;;;3.90;;
84923;SDS011;75286;52.218;5.180;2024-02-26T00:18:04;10.98;;;4.32;;
84923;SDS011;75286;52.218;5.180;2024-02-26T00:20:30;7.38;;;4.20;;
84923;SDS011;75286;52.218;5.180;2024-02-26T00:22:55;7.20;;;3.70;;
84923;SDS011;75286;52.218;5.180;2024-02-26T00:25:21;6.75;;;4.10;;
84923;SDS011;75286;52.218;5.180;2024-02-26T00:27:47;6.13;;;3.90;;
84923;SDS011;75286;52.218;5.180;2024-02-26T00:30:12;6.50;;;4.05;;
84923;SDS011;75286;52.218;5.180;2024-02-26T00:32:37;8.63;;;5.35;;
84923;SDS011;75286;52.218;5.180;2024-02-26T00:35:03;8.70;;;4.53;;
84923;SDS011;75286;52.218;5.180;2024-02-26T00:37:29;7.15;;;4.43;;
84923;SDS011;75286;52.218;5.180;2024-02-26T00:39:54;9.20;;;5.13;;
84923;SDS011;75286;52.218;5.180;2024-02-26T00:42:20;8.93;;;5.22;;
84923;SDS011;75286;52.218;5.180;2024-02-26T00:44:45;8.45;;;4.90;;
84923;SDS011;75286;52.218;5.180;2024-02-26T00:47:10;7.68;;;4.95;;
84923;SDS011;75286;52.218;5.180;2024-02-26T00:49:37;10.10;;;6.05;;
84923;SDS011;75286;52.218;5.180;2024-02-26T00:52:02;8.27;;;4.90;;
84923;SDS011;75286;52.218;5.180;2024-02-26T00:54:28;8.77;;;5.50;;
84923;SDS011;75286;52.218;5.180;2024-02-26T00:56:53;10.50;;;5.50;;
84923;SDS011;75286;52.218;5.180;2024-02-26T00:59:19;11.70;;;6.13;;
84923;SDS011;75286;52.218;5.180;2024-02-26T01:01:44;9.25;;;5.93;;
84923;SDS011;75286;52.218;5.180;2024-02-26T01:04:13;10.10;;;5.40;;
84923;SDS011;75286;52.218;5.180;2024-02-26T01:06:38;9.30;;;5.50;;
84923;SDS011;75286;52.218;5.180;2024-02-26T01:09:04;10.10;;;5.55;;
84923;SDS011;75286;52.218;5.180;2024-02-26T01:11:29;9.82;;;6.15;;
84923;SDS011;75286;52.218;5.180;2024-02-26T01:13:54;9.75;;;6.30;;
84923;SDS011;75286;52.218;5.180;2024-02-26T01:16:22;9.80;;;5.82;;
84923;SDS011;75286;52.218;5.180;2024-02-26T01:18:48;9.68;;;6.18;;
84923;SDS011;75286;52.218;5.180;2024-02-26T01:21:14;9.52;;;5.97;;
84923;SDS011;75286;52.218;5.180;2024-02-26T01:23:39;9.10;;;5.68;;
84923;SDS011;75286;52.218;5.180;2024-02-26T01:26:05;10.05;;;5.97;;
84923;SDS011;75286;52.218;5.180;2024-02-26T01:28:30;10.98;;;6.30;;
84923;SDS011;75286;52.218;5.180;2024-02-26T01:30:56;9.95;;;6.15;;
84923;SDS011;75286;52.218;5.180;2024-02-26T01:33:21;10.07;;;6.05;;
84923;SDS011;75286;52.218;5.180;2024-02-26T01:35:47;11.13;;;7.00;;
84923;SDS011;75286;52.218;5.180;2024-02-26T01:38:12;11.95;;;6.63;;
84923;SDS011;75286;52.218;5.180;2024-02-26T01:40:38;10.63;;;6.82;;
84923;SDS011;75286;52.218;5.180;2024-02-26T01:43:03;11.98;;;7.35;;
84923;SDS011;75286;52.218;5.180;2024-02-26T01:45:29;10.73;;;7.10;;
84923;SDS011;75286;52.218;5.180;2024-02-26T01:47:54;12.18;;;8.07;;
84923;SDS011;75286;52.218;5.180;2024-02-26T01:50:20;11.43;;;7.15;;
84923;SDS011;75286;52.218;5.180;2024-02-26T01:52:47;12.05;;;7.20;;
84923;SDS011;75286;52.218;5.180;2024-02-26T01:55:14;13.23;;;7.70;;
84923;SDS011;75286;52.218;5.180;2024-02-26T01:57:40;11.57;;;7.88;;
84923;SDS011;75286;52.218;5.180;2024-02-26T02:00:08;12.07;;;7.40;;
84923;SDS011;75286;52.218;5.180;2024-02-26T02:02:35;14.25;;;7.25;;
84923;SDS011;75286;52.218;5.180;2024-02-26T02:05:01;11.43;;;6.93;;
84923;SDS011;75286;52.218;5.180;2024-02-26T02:07:27;11.38;;;6.75;;
84923;SDS011;75286;52.218;5.180;2024-02-26T02:09:54;11.52;;;7.47;;
84923;SDS011;75286;52.218;5.180;2024-02-26T02:12:19;11.52;;;8.60;;
84923;SDS011;75286;52.218;5.180;2024-02-26T02:14:46;12.80;;;7.60;;
84923;SDS011;75286;52.218;5.180;2024-02-26T02:17:12;11.88;;;7.47;;
84923;SDS011;75286;52.218;5.180;2024-02-26T02:19:37;13.18;;;7.97;;
84923;SDS011;75286;52.218;5.180;2024-02-26T02:22:03;12.15;;;7.57;;
84923;SDS011;75286;52.218;5.180;2024-02-26T02:24:28;14.05;;;7.75;;
84923;SDS011;75286;52.218;5.180;2024-02-26T02:26:53;11.55;;;7.30;;
84923;SDS011;75286;52.218;5.180;2024-02-26T02:29:20;11.57;;;8.27;;
84923;SDS011;75286;52.218;5.180;2024-02-26T02:31:45;12.55;;;7.72;;
84923;SDS011;75286;52.218;5.180;2024-02-26T02:34:11;13.45;;;7.82;;
84923;SDS011;75286;52.218;5.180;2024-02-26T02:36:53;10.88;;;7.20;;
84923;SDS011;75286;52.218;5.180;2024-02-26T02:39:19;12.32;;;7.35;;
84923;SDS011;75286;52.218;5.180;2024-02-26T02:41:45;11.70;;;7.40;;
84923;SDS011;75286;52.218;5.180;2024-02-26T02:44:11;12.48;;;7.53;;
84923;SDS011;75286;52.218;5.180;2024-02-26T02:46:36;13.43;;;7.30;;
84923;SDS011;75286;52.218;5.180;2024-02-26T02:49:02;11.15;;;7.13;;
84923;SDS011;75286;52.218;5.180;2024-02-26T02:51:28;12.30;;;8.07;;
84923;SDS011;75286;52.218;5.180;2024-02-26T02:53:56;10.45;;;6.68;;
84923;SDS011;75286;52.218;5.180;2024-02-26T02:56:21;13.82;;;7.97;;
84923;SDS011;75286;52.218;5.180;2024-02-26T02:58:47;13.68;;;8.27;;
84923;SDS011;75286;52.218;5.180;2024-02-26T03:01:13;11.52;;;7.75;;
84923;SDS011;75286;52.218;5.180;2024-02-26T03:03:38;13.55;;;7.93;;
84923;SDS011;75286;52.218;5.180;2024-02-26T03:06:03;14.10;;;8.23;;
84923;SDS011;75286;52.218;5.180;2024-02-26T03:08:29;13.45;;;7.93;;
84923;SDS011;75286;52.218;5.180;2024-02-26T03:10:54;12.07;;;7.63;;
84923;SDS011;75286;52.218;5.180;2024-02-26T03:16:09;13.15;;;7.93;;
84923;SDS011;75286;52.218;5.180;2024-02-26T03:18:34;11.88;;;7.68;;
84923;SDS011;75286;52.218;5.180;2024-02-26T03:21:00;12.77;;;7.93;;
84923;SDS011;75286;52.218;5.180;2024-02-26T03:23:25;12.95;;;8.23;;
84923;SDS011;75286;52.218;5.180;2024-02-26T03:25:51;13.02;;;7.97;;
84923;SDS011;75286;52.218;5.180;2024-02-26T03:28:17;16.10;;;8.55;;
84923;SDS011;75286;52.218;5.180;2024-02-26T03:30:42;12.38;;;8.15;;
84923;SDS011;75286;52.218;5.180;2024-02-26T03:33:08;13.65;;;8.23;;
84923;SDS011;75286;52.218;5.180;2024-02-26T03:35:33;14.15;;;8.73;;
84923;SDS011;75286;52.218;5.180;2024-02-26T03:37:59;14.00;;;9.10;;
84923;SDS011;75286;52.218;5.180;2024-02-26T03:40:24;14.30;;;8.85;;
84923;SDS011;75286;52.218;5.180;2024-02-26T03:42:50;15.05;;;9.43;;
84923;SDS011;75286;52.218;5.180;2024-02-26T03:45:17;14.90;;;8.73;;
84923;SDS011;75286;52.218;5.180;2024-02-26T03:47:43;16.05;;;9.18;;
84923;SDS011;75286;52.218;5.180;2024-02-26T03:50:09;15.25;;;9.63;;
84923;SDS011;75286;52.218;5.180;2024-02-26T03:52:34;15.45;;;9.63;;
84923;SDS011;75286;52.218;5.180;2024-02-26T03:55:00;14.60;;;9.02;;
84923;SDS011;75286;52.218;5.180;2024-02-26T03:57:28;15.43;;;8.50;;
84923;SDS011;75286;52.218;5.180;2024-02-26T03:59:53;13.95;;;8.50;;
84923;SDS011;75286;52.218;5.180;2024-02-26T04:02:19;16.55;;;8.75;;
84923;SDS011;75286;52.218;5.180;2024-02-26T04:04:45;14.07;;;8.73;;
84923;SDS011;75286;52.218;5.180;2024-02-26T04:07:11;14.93;;;9.07;;
84923;SDS011;75286;52.218;5.180;2024-02-26T04:09:37;15.70;;;9.63;;
84923;SDS011;75286;52.218;5.180;2024-02-26T04:12:02;14.23;;;8.07;;
84923;SDS011;75286;52.218;5.180;2024-02-26T04:14:28;14.32;;;8.25;;
84923;SDS011;75286;52.218;5.180;2024-02-26T04:16:53;14.23;;;8.68;;
84923;SDS011;75286;52.218;5.180;2024-02-26T04:19:19;12.32;;;8.45;;
84923;SDS011;75286;52.218;5.180;2024-02-26T04:21:45;14.00;;;8.70;;
84923;SDS011;75286;52.218;5.180;2024-02-26T04:24:11;13.32;;;8.70;;
84923;SDS011;75286;52.218;5.180;2024-02-26T04:26:36;13.23;;;7.40;;
84923;SDS011;75286;52.218;5.180;2024-02-26T04:29:02;13.60;;;8.30;;
84923;SDS011;75286;52.218;5.180;2024-02-26T04:31:27;14.55;;;8.32;;
84923;SDS011;75286;52.218;5.180;2024-02-26T04:33:55;14.65;;;8.43;;
84923;SDS011;75286;52.218;5.180;2024-02-26T04:36:20;14.95;;;8.82;;
84923;SDS011;75286;52.218;5.180;2024-02-26T04:38:47;14.38;;;8.27;;
84923;SDS011;75286;52.218;5.180;2024-02-26T04:41:12;14.35;;;8.88;;
84923;SDS011;75286;52.218;5.180;2024-02-26T04:43:37;13.32;;;8.18;;
84923;SDS011;75286;52.218;5.180;2024-02-26T04:46:09;14.40;;;8.32;;
84923;SDS011;75286;52.218;5.180;2024-02-26T04:48:37;14.63;;;9.18;;
84923;SDS011;75286;52.218;5.180;2024-02-26T04:51:07;15.48;;;8.60;;
84923;SDS011;75286;52.218;5.180;2024-02-26T04:53:32;13.98;;;8.27;;
84923;SDS011;75286;52.218;5.180;2024-02-26T04:55:58;13.75;;;8.38;;
84923;SDS011;75286;52.218;5.180;2024-02-26T04:58:23;14.43;;;8.90;;
84923;SDS011;75286;52.218;5.180;2024-02-26T05:00:49;14.85;;;8.65;;
84923;SDS011;75286;52.218;5.180;2024-02-26T05:03:14;14.90;;;8.82;;
84923;SDS011;75286;52.218;5.180;2024-02-26T05:05:53;14.95;;;7.70;;
84923;SDS011;75286;52.218;5.180;2024-02-26T05:08:26;16.33;;;9.90;;
84923;SDS011;75286;52.218;5.180;2024-02-26T05:10:51;17.08;;;8.88;;
84923;SDS011;75286;52.218;5.180;2024-02-26T05:13:16;16.02;;;9.02;;
84923;SDS011;75286;52.218;5.180;2024-02-26T05:15:43;15.75;;;9.35;;
84923;SDS011;75286;52.218;5.180;2024-02-26T05:18:10;14.95;;;9.15;;
84923;SDS011;75286;52.218;5.180;2024-02-26T05:20:35;17.15;;;9.73;;
84923;SDS011;75286;52.218;5.180;2024-02-26T05:23:02;16.52;;;10.35;;
84923;SDS011;75286;52.218;5.180;2024-02-26T05:25:29;15.80;;;9.60;;
84923;SDS011;75286;52.218;5.180;2024-02-26T05:27:56;17.45;;;10.77;;
84923;SDS011;75286;52.218;5.180;2024-02-26T05:30:21;17.52;;;9.63;;
84923;SDS011;75286;52.218;5.180;2024-02-26T05:32:46;17.40;;;10.52;;
84923;SDS011;75286;52.218;5.180;2024-02-26T05:35:12;18.05;;;9.98;;
84923;SDS011;75286;52.218;5.180;2024-02-26T05:37:38;19.23;;;10.50;;
84923;SDS011;75286;52.218;5.180;2024-02-26T05:40:03;17.17;;;10.65;;
84923;SDS011;75286;52.218;5.180;2024-02-26T05:42:30;17.70;;;9.82;;
84923;SDS011;75286;52.218;5.180;2024-02-26T05:44:55;18.05;;;10.07;;
84923;SDS011;75286;52.218;5.180;2024-02-26T05:47:20;19.65;;;11.60;;
84923;SDS011;75286;52.218;5.180;2024-02-26T05:49:46;19.80;;;11.45;;
84923;SDS011;75286;52.218;5.180;2024-02-26T05:52:13;18.33;;;11.48;;
84923;SDS011;75286;52.218;5.180;2024-02-26T05:54:39;19.92;;;12.25;;
84923;SDS011;75286;52.218;5.180;2024-02-26T05:57:04;21.98;;;11.80;;
84923;SDS011;75286;52.218;5.180;2024-02-26T05:59:30;24.30;;;13.85;;
84923;SDS011;75286;52.218;5.180;2024-02-26T06:01:55;19.17;;;11.63;;
84923;SDS011;75286;52.218;5.180;2024-02-26T06:04:20;20.45;;;12.52;;
84923;SDS011;75286;52.218;5.180;2024-02-26T06:06:46;20.10;;;11.38;;
84923;SDS011;75286;52.218;5.180;2024-02-26T06:09:11;22.20;;;11.98;;
84923;SDS011;75286;52.218;5.180;2024-02-26T06:11:37;19.45;;;11.40;;
84923;SDS011;75286;52.218;5.180;2024-02-26T06:14:03;21.70;;;12.05;;
84923;SDS011;75286;52.218;5.180;2024-02-26T06:16:28;20.48;;;11.82;;
84923;SDS011;75286;52.218;5.180;2024-02-26T06:18:53;20.95;;;12.18;;
84923;SDS011;75286;52.218;5.180;2024-02-26T06:21:19;18.77;;;11.35;;
84923;SDS011;75286;52.218;5.180;2024-02-26T06:23:44;20.55;;;11.25;;
84923;SDS011;75286;52.218;5.180;2024-02-26T06:26:10;24.25;;;13.27;;
84923;SDS011;75286;52.218;5.180;2024-02-26T06:28:35;23.73;;;13.55;;
84923;SDS011;75286;52.218;5.180;2024-02-26T06:31:01;23.40;;;13.77;;
84923;SDS011;75286;52.218;5.180;2024-02-26T06:33:27;25.90;;;14.90;;
84923;SDS011;75286;52.218;5.180;2024-02-26T06:35:52;22.77;;;13.32;;
84923;SDS011;75286;52.218;5.180;2024-02-26T06:38:17;22.90;;;13.60;;
84923;SDS011;75286;52.218;5.180;2024-02-26T06:40:43;23.83;;;14.88;;
84923;SDS011;75286;52.218;5.180;2024-02-26T06:43:09;25.83;;;15.20;;
84923;SDS011;75286;52.218;5.180;2024-02-26T06:45:35;24.17;;;15.00;;
84923;SDS011;75286;52.218;5.180;2024-02-26T06:48:00;25.75;;;15.82;;
84923;SDS011;75286;52.218;5.180;2024-02-26T06:50:26;23.23;;;14.00;;
84923;SDS011;75286;52.218;5.180;2024-02-26T06:52:51;25.20;;;15.30;;
84923;SDS011;75286;52.218;5.180;2024-02-26T06:55:17;26.70;;;17.00;;
84923;SDS011;75286;52.218;5.180;2024-02-26T06:57:42;25.40;;;15.93;;
84923;SDS011;75286;52.218;5.180;2024-02-26T07:00:11;24.85;;;14.93;;
84923;SDS011;75286;52.218;5.180;2024-02-26T07:02:39;25.27;;;16.48;;
84923;SDS011;75286;52.218;5.180;2024-02-26T07:05:05;21.88;;;13.57;;
84923;SDS011;75286;52.218;5.180;2024-02-26T07:07:31;26.65;;;15.23;;
84923;SDS011;75286;52.218;5.180;2024-02-26T07:10:00;26.88;;;16.63;;
84923;SDS011;75286;52.218;5.180;2024-02-26T07:12:29;25.00;;;15.32;;
84923;SDS011;75286;52.218;5.180;2024-02-26T07:14:54;23.70;;;14.23;;
84923;SDS011;75286;52.218;5.180;2024-02-26T07:17:20;24.27;;;14.40;;
84923;SDS011;75286;52.218;5.180;2024-02-26T07:19:48;23.65;;;14.50;;
84923;SDS011;75286;52.218;5.180;2024-02-26T07:22:16;21.85;;;13.43;;
84923;SDS011;75286;52.218;5.180;2024-02-26T07:24:41;23.45;;;13.70;;
84923;SDS011;75286;52.218;5.180;2024-02-26T07:27:07;20.40;;;13.30;;
84923;SDS011;75286;52.218;5.180;2024-02-26T07:29:32;21.25;;;13.25;;
84923;SDS011;75286;52.218;5.180;2024-02-26T07:31:58;20.45;;;13.52;;
84923;SDS011;75286;52.218;5.180;2024-02-26T07:34:23;19.48;;;12.60;;
84923;SDS011;75286;52.218;5.180;2024-02-26T07:36:52;19.58;;;12.63;;
84923;SDS011;75286;52.218;5.180;2024-02-26T07:39:18;16.88;;;11.73;;
84923;SDS011;75286;52.218;5.180;2024-02-26T07:41:44;19.10;;;12.45;;
84923;SDS011;75286;52.218;5.180;2024-02-26T07:44:12;19.10;;;11.93;;
84923;SDS011;75286;52.218;5.180;2024-02-26T07:46:37;17.70;;;11.85;;
84923;SDS011;75286;52.218;5.180;2024-02-26T07:49:02;17.65;;;10.50;;
84923;SDS011;75286;52.218;5.180;2024-02-26T07:51:28;20.27;;;11.95;;
84923;SDS011;75286;52.218;5.180;2024-02-26T07:53:53;19.65;;;11.50;;
84923;SDS011;75286;52.218;5.180;2024-02-26T07:56:18;15.48;;;8.80;;
84923;SDS011;75286;52.218;5.180;2024-02-26T07:58:44;18.50;;;11.60;;
84923;SDS011;75286;52.218;5.180;2024-02-26T08:01:09;17.25;;;11.02;;
84923;SDS011;75286;52.218;5.180;2024-02-26T08:03:39;17.33;;;9.82;;
84923;SDS011;75286;52.218;5.180;2024-02-26T08:06:04;17.65;;;10.95;;
84923;SDS011;75286;52.218;5.180;2024-02-26T08:08:29;16.55;;;10.05;;
84923;SDS011;75286;52.218;5.180;2024-02-26T08:10:55;15.38;;;9.52;;
84923;SDS011;75286;52.218;5.180;2024-02-26T08:13:20;14.73;;;9.98;;
84923;SDS011;75286;52.218;5.180;2024-02-26T08:15:48;15.55;;;8.82;;
84923;SDS011;75286;52.218;5.180;2024-02-26T08:18:14;14.50;;;8.93;;
84923;SDS011;75286;52.218;5.180;2024-02-26T08:20:39;12.90;;;8.23;;
84923;SDS011;75286;52.218;5.180;2024-02-26T08:23:05;14.52;;;8.40;;
84923;SDS011;75286;52.218;5.180;2024-02-26T08:25:30;14.52;;;7.35;;
84923;SDS011;75286;52.218;5.180;2024-02-26T08:27:55;14.25;;;7.63;;
84923;SDS011;75286;52.218;5.180;2024-02-26T08:30:21;15.70;;;8.13;;
84923;SDS011;75286;52.218;5.180;2024-02-26T08:32:47;13.65;;;8.20;;
84923;SDS011;75286;52.218;5.180;2024-02-26T08:35:13;14.05;;;7.70;;
84923;SDS011;75286;52.218;5.180;2024-02-26T08:37:38;14.98;;;8.20;;
84923;SDS011;75286;52.218;5.180;2024-02-26T08:40:04;15.63;;;8.73;;
84923;SDS011;75286;52.218;5.180;2024-02-26T08:42:30;12.32;;;7.03;;
84923;SDS011;75286;52.218;5.180;2024-02-26T08:44:55;11.07;;;6.50;;
84923;SDS011;75286;52.218;5.180;2024-02-26T08:47:21;11.70;;;6.78;;
84923;SDS011;75286;52.218;5.180;2024-02-26T08:49:46;11.45;;;8.15;;
84923;SDS011;75286;52.218;5.180;2024-02-26T08:52:11;11.63;;;6.70;;
84923;SDS011;75286;52.218;5.180;2024-02-26T08:54:37;11.93;;;6.40;;
84923;SDS011;75286;52.218;5.180;2024-02-26T08:57:03;10.95;;;6.78;;
84923;SDS011;75286;52.218;5.180;2024-02-26T08:59:29;12.77;;;6.30;;
84923;SDS011;75286;52.218;5.180;2024-02-26T09:01:54;13.35;;;6.50;;
84923;SDS011;75286;52.218;5.180;2024-02-26T09:04:20;11.23;;;6.38;;
84923;SDS011;75286;52.218;5.180;2024-02-26T09:06:45;10.43;;;6.05;;
84923;SDS011;75286;52.218;5.180;2024-02-26T09:09:11;10.70;;;5.88;;
84923;SDS011;75286;52.218;5.180;2024-02-26T09:11:36;9.68;;;5.50;;
84923;SDS011;75286;52.218;5.180;2024-02-26T09:16:46;10.90;;;5.57;;
84923;SDS011;75286;52.218;5.180;2024-02-26T09:19:16;9.30;;;5.20;;
84923;SDS011;75286;52.218;5.180;2024-02-26T09:24:23;11.65;;;5.18;;
84923;SDS011;75286;52.218;5.180;2024-02-26T09:26:49;9.98;;;5.55;;
84923;SDS011;75286;52.218;5.180;2024-02-26T09:29:15;11.48;;;5.18;;
84923;SDS011;75286;52.218;5.180;2024-02-26T09:31:40;10.00;;;5.70;;
84923;SDS011;75286;52.218;5.180;2024-02-26T09:34:06;10.68;;;5.60;;
84923;SDS011;75286;52.218;5.180;2024-02-26T09:36:32;10.27;;;4.85;;
84923;SDS011;75286;52.218;5.180;2024-02-26T09:38:58;9.02;;;5.13;;
84923;SDS011;75286;52.218;5.180;2024-02-26T09:41:24;9.48;;;5.38;;
84923;SDS011;75286;52.218;5.180;2024-02-26T09:43:54;9.40;;;4.70;;
84923;SDS011;75286;52.218;5.180;2024-02-26T09:46:22;9.57;;;5.70;;
84923;SDS011;75286;52.218;5.180;2024-02-26T09:48:49;10.45;;;5.60;;
84923;SDS011;75286;52.218;5.180;2024-02-26T09:51:15;12.35;;;5.47;;
84923;SDS011;75286;52.218;5.180;2024-02-26T09:53:43;9.85;;;5.00;;
84923;SDS011;75286;52.218;5.180;2024-02-26T09:56:11;9.82;;;5.13;;
84923;SDS011;75286;52.218;5.180;2024-02-26T09:58:38;9.73;;;5.30;;
84923;SDS011;75286;52.218;5.180;2024-02-26T10:01:07;8.23;;;4.65;;
84923;SDS011;75286;52.218;5.180;2024-02-26T10:03:40;9.93;;;5.25;;
84923;SDS011;75286;52.218;5.180;2024-02-26T10:06:10;9.00;;;4.70;;
84923;SDS011;75286;52.218;5.180;2024-02-26T10:08:36;9.50;;;5.38;;
84923;SDS011;75286;52.218;5.180;2024-02-26T10:11:05;9.93;;;5.60;;
84923;SDS011;75286;52.218;5.180;2024-02-26T10:13:36;13.60;;;5.38;;
84923;SDS011;75286;52.218;5.180;2024-02-26T10:16:02;11.15;;;5.38;;
84923;SDS011;75286;52.218;5.180;2024-02-26T10:18:47;9.13;;;5.05;;
84923;SDS011;75286;52.218;5.180;2024-02-26T10:21:14;10.13;;;5.55;;
84923;SDS011;75286;52.218;5.180;2024-02-26T10:23:42;10.52;;;5.65;;
84923;SDS011;75286;52.218;5.180;2024-02-26T10:26:09;9.73;;;5.22;;
84923;SDS011;75286;52.218;5.180;2024-02-26T10:28:36;10.57;;;5.55;;
84923;SDS011;75286;52.218;5.180;2024-02-26T10:31:01;10.43;;;5.85;;
84923;SDS011;75286;52.218;5.180;2024-02-26T10:33:28;11.57;;;5.32;;
84923;SDS011;75286;52.218;5.180;2024-02-26T10:35:53;9.50;;;5.07;;
84923;SDS011;75286;52.218;5.180;2024-02-26T10:38:19;9.80;;;5.70;;
84923;SDS011;75286;52.218;5.180;2024-02-26T10:40:46;11.02;;;5.53;;
84923;SDS011;75286;52.218;5.180;2024-02-26T10:43:11;9.23;;;5.22;;
84923;SDS011;75286;52.218;5.180;2024-02-26T10:45:39;10.82;;;5.82;;
84923;SDS011;75286;52.218;5.180;2024-02-26T10:48:14;11.57;;;6.07;;
84923;SDS011;75286;52.218;5.180;2024-02-26T10:50:40;11.75;;;5.80;;
84923;SDS011;75286;52.218;5.180;2024-02-26T10:53:11;10.52;;;4.93;;
84923;SDS011;75286;52.218;5.180;2024-02-26T10:55:41;10.85;;;5.60;;
84923;SDS011;75286;52.218;5.180;2024-02-26T10:58:06;10.50;;;5.32;;
84923;SDS011;75286;52.218;5.180;2024-02-26T11:00:33;12.02;;;5.25;;
84923;SDS011;75286;52.218;5.180;2024-02-26T11:03:01;12.55;;;5.80;;
84923;SDS011;75286;52.218;5.180;2024-02-26T11:05:30;9.25;;;5.35;;
84923;SDS011;75286;52.218;5.180;2024-02-26T11:07:58;11.43;;;5.72;;
84923;SDS011;75286;52.218;5.180;2024-02-26T11:10:25;10.13;;;5.53;;
84923;SDS011;75286;52.218;5.180;2024-02-26T11:12:54;9.93;;;5.40;;
84923;SDS011;75286;52.218;5.180;2024-02-26T11:15:24;9.95;;;5.20;;
84923;SDS011;75286;52.218;5.180;2024-02-26T11:17:49;10.13;;;5.40;;
84923;SDS011;75286;52.218;5.180;2024-02-26T11:20:19;9.75;;;5.43;;
84923;SDS011;75286;52.218;5.180;2024-02-26T11:22:44;9.10;;;5.28;;
84923;SDS011;75286;52.218;5.180;2024-02-26T11:25:10;12.30;;;6.38;;
84923;SDS011;75286;52.218;5.180;2024-02-26T11:27:39;10.65;;;5.40;;
84923;SDS011;75286;52.218;5.180;2024-02-26T11:30:09;10.98;;;5.60;;
84923;SDS011;75286;52.218;5.180;2024-02-26T11:32:36;10.25;;;5.78;;
84923;SDS011;75286;52.218;5.180;2024-02-26T11:35:03;9.43;;;5.28;;
84923;SDS011;75286;52.218;5.180;2024-02-26T11:37:30;11.30;;;5.28;;
84923;SDS011;75286;52.218;5.180;2024-02-26T11:39:57;9.18;;;4.57;;
84923;SDS011;75286;52.218;5.180;2024-02-26T11:42:24;8.82;;;5.10;;
84923;SDS011;75286;52.218;5.180;2024-02-26T11:44:53;8.63;;;4.85;;
84923;SDS011;75286;52.218;5.180;2024-02-26T11:47:21;8.90;;;5.30;;
84923;SDS011;75286;52.218;5.180;2024-02-26T11:49:47;9.27;;;5.05;;
84923;SDS011;75286;52.218;5.180;2024-02-26T11:52:14;13.13;;;5.05;;
84923;SDS011;75286;52.218;5.180;2024-02-26T11:54:43;8.65;;;5.13;;
84923;SDS011;75286;52.218;5.180;2024-02-26T11:59:55;11.68;;;5.43;;
84923;SDS011;75286;52.218;5.180;2024-02-26T12:02:37;9.35;;;5.10;;
84923;SDS011;75286;52.218;5.180;2024-02-26T12:05:23;10.30;;;5.35;;
84923;SDS011;75286;52.218;5.180;2024-02-26T12:10:26;8.77;;;5.07;;
84923;SDS011;75286;52.218;5.180;2024-02-26T12:13:07;8.73;;;4.70;;
84923;SDS011;75286;52.218;5.180;2024-02-26T12:15:38;9.35;;;5.43;;
84923;SDS011;75286;52.218;5.180;2024-02-26T12:18:05;10.13;;;5.18;;
84923;SDS011;75286;52.218;5.180;2024-02-26T12:20:32;8.52;;;4.63;;
84923;SDS011;75286;52.218;5.180;2024-02-26T12:22:59;8.80;;;5.05;;
84923;SDS011;75286;52.218;5.180;2024-02-26T12:25:25;8.95;;;4.97;;
84923;SDS011;75286;52.218;5.180;2024-02-26T12:28:01;8.98;;;4.93;;
84923;SDS011;75286;52.218;5.180;2024-02-26T12:30:26;7.22;;;3.88;;
84923;SDS011;75286;52.218;5.180;2024-02-26T12:32:59;10.20;;;5.30;;
84923;SDS011;75286;52.218;5.180;2024-02-26T12:35:26;8.38;;;4.43;;
84923;SDS011;75286;52.218;5.180;2024-02-26T12:37:52;7.53;;;4.38;;
84923;SDS011;75286;52.218;5.180;2024-02-26T12:40:18;8.77;;;4.65;;
84923;SDS011;75286;52.218;5.180;2024-02-26T12:42:44;8.43;;;4.60;;
84923;SDS011;75286;52.218;5.180;2024-02-26T12:45:11;8.07;;;4.40;;
84923;SDS011;75286;52.218;5.180;2024-02-26T12:47:44;8.85;;;4.68;;
84923;SDS011;75286;52.218;5.180;2024-02-26T12:50:11;8.27;;;4.50;;
84923;SDS011;75286;52.218;5.180;2024-02-26T12:52:38;7.32;;;4.50;;
84923;SDS011;75286;52.218;5.180;2024-02-26T12:55:06;8.80;;;4.35;;
84923;SDS011;75286;52.218;5.180;2024-02-26T12:57:38;7.57;;;4.13;;
84923;SDS011;75286;52.218;5.180;2024-02-26T13:00:05;7.30;;;4.25;;
84923;SDS011;75286;52.218;5.180;2024-02-26T13:02:34;7.32;;;3.97;;
84923;SDS011;75286;52.218;5.180;2024-02-26T13:05:01;9.35;;;4.50;;
84923;SDS011;75286;52.218;5.180;2024-02-26T13:07:28;6.95;;;4.00;;
84923;SDS011;75286;52.218;5.180;2024-02-26T13:09:53;7.60;;;4.28;;
84923;SDS011;75286;52.218;5.180;2024-02-26T13:12:19;9.70;;;4.45;;
84923;SDS011;75286;52.218;5.180;2024-02-26T13:14:47;8.15;;;4.18;;
84923;SDS011;75286;52.218;5.180;2024-02-26T13:17:12;8.40;;;4.38;;
84923;SDS011;75286;52.218;5.180;2024-02-26T13:19:37;8.32;;;4.22;;
84923;SDS011;75286;52.218;5.180;2024-02-26T13:22:13;7.60;;;4.13;;
84923;SDS011;75286;52.218;5.180;2024-02-26T13:24:39;7.28;;;3.80;;
84923;SDS011;75286;52.218;5.180;2024-02-26T13:27:04;8.23;;;4.30;;
84923;SDS011;75286;52.218;5.180;2024-02-26T13:29:31;7.47;;;4.25;;
84923;SDS011;75286;52.218;5.180;2024-02-26T13:31:59;9.15;;;4.20;;
84923;SDS011;75286;52.218;5.180;2024-02-26T13:34:26;8.95;;;4.40;;
84923;SDS011;75286;52.218;5.180;2024-02-26T13:36:53;7.55;;;3.97;;
84923;SDS011;75286;52.218;5.180;2024-02-26T13:39:23;7.25;;;3.55;;
84923;SDS011;75286;52.218;5.180;2024-02-26T13:41:49;8.18;;;3.80;;
84923;SDS011;75286;52.218;5.180;2024-02-26T13:44:14;6.88;;;3.38;;
84923;SDS011;75286;52.218;5.180;2024-02-26T13:46:40;6.75;;;3.38;;
84923;SDS011;75286;52.218;5.180;2024-02-26T13:49:07;7.50;;;3.55;;
84923;SDS011;75286;52.218;5.180;2024-02-26T13:51:34;7.50;;;3.92;;
84923;SDS011;75286;52.218;5.180;2024-02-26T13:54:00;7.78;;;4.10;;
84923;SDS011;75286;52.218;5.180;2024-02-26T13:56:26;7.88;;;4.05;;
84923;SDS011;75286;52.218;5.180;2024-02-26T13:58:52;7.22;;;3.92;;
84923;SDS011;75286;52.218;5.180;2024-02-26T14:01:17;8.73;;;4.10;;
84923;SDS011;75286;52.218;5.180;2024-02-26T14:03:43;7.75;;;4.03;;
84923;SDS011;75286;52.218;5.180;2024-02-26T14:06:08;7.90;;;3.83;;
84923;SDS011;75286;52.218;5.180;2024-02-26T14:08:34;7.32;;;4.07;;
84923;SDS011;75286;52.218;5.180;2024-02-26T14:10:59;6.75;;;3.78;;
84923;SDS011;75286;52.218;5.180;2024-02-26T14:13:25;6.82;;;3.75;;
84923;SDS011;75286;52.218;5.180;2024-02-26T14:15:50;5.95;;;3.38;;
84923;SDS011;75286;52.218;5.180;2024-02-26T14:18:16;6.90;;;3.33;;
84923;SDS011;75286;52.218;5.180;2024-02-26T14:20:41;7.85;;;3.40;;
84923;SDS011;75286;52.218;5.180;2024-02-26T14:23:09;7.70;;;3.63;;
84923;SDS011;75286;52.218;5.180;2024-02-26T14:25:35;7.28;;;3.17;;
84923;SDS011;75286;52.218;5.180;2024-02-26T14:28:01;6.80;;;3.28;;
84923;SDS011;75286;52.218;5.180;2024-02-26T14:30:27;7.32;;;3.65;;
84923;SDS011;75286;52.218;5.180;2024-02-26T14:32:53;7.53;;;3.08;;
84923;SDS011;75286;52.218;5.180;2024-02-26T14:41:55;6.95;;;3.13;;
84923;SDS011;75286;52.218;5.180;2024-02-26T14:44:32;4.93;;;2.55;;
84923;SDS011;75286;52.218;5.180;2024-02-26T14:47:13;7.63;;;3.30;;
84923;SDS011;75286;52.218;5.180;2024-02-26T14:52:43;6.03;;;2.97;;
84923;SDS011;75286;52.218;5.180;2024-02-26T14:55:09;6.93;;;2.67;;